sensor_id;sensor_type;location;lat;lon;timestamp;P1;durP1;ratioP1;P2;durP2;ratioP2
45274;SDS011;31019;43.780;25.948;2022-10-18T00:02:04;50.05;;;45.83;;
45274;SDS011;31019;43.780;25.948;2022-10-18T00:04:36;52.28;;;48.22;;
45274;SDS011;31019;43.780;25.948;2022-10-18T00:07:03;49.47;;;45.22;;
45274;SDS011;31019;43.780;25.948;2022-10-18T00:09:32;48.53;;;44.25;;
45274;SDS011;31019;43.780;25.948;2022-10-18T00:12:02;48.90;;;45.10;;
45274;SDS011;31019;43.780;25.948;2022-10-18T00:14:35;54.45;;;50.53;;
45274;SDS011;31019;43.780;25.948;2022-10-18T00:17:04;51.78;;;47.95;;
45274;SDS011;31019;43.780;25.948;2022-10-18T00:22:07;49.58;;;46.08;;
45274;SDS011;31019;43.780;25.948;2022-10-18T00:24:36;43.83;;;40.63;;
45274;SDS011;31019;43.780;25.948;2022-10-18T00:27:16;44.00;;;40.50;;
45274;SDS011;31019;43.780;25.948;2022-10-18T00:29:45;48.65;;;44.67;;
45274;SDS011;31019;43.780;25.948;2022-10-18T00:32:17;46.88;;;43.65;;
45274;SDS011;31019;43.780;25.948;2022-10-18T00:34:48;47.45;;;43.97;;
45274;SDS011;31019;43.780;25.948;2022-10-18T00:37:19;45.50;;;42.17;;
45274;SDS011;31019;43.780;25.948;2022-10-18T00:39:48;46.28;;;42.58;;
45274;SDS011;31019;43.780;25.948;2022-10-18T00:42:18;48.28;;;44.55;;
45274;SDS011;31019;43.780;25.948;2022-10-18T00:45:00;45.90;;;42.28;;
45274;SDS011;31019;43.780;25.948;2022-10-18T00:47:30;43.45;;;40.13;;
45274;SDS011;31019;43.780;25.948;2022-10-18T00:50:04;45.83;;;42.35;;
45274;SDS011;31019;43.780;25.948;2022-10-18T00:52:34;47.00;;;43.58;;
45274;SDS011;31019;43.780;25.948;2022-10-18T00:55:08;49.90;;;46.47;;
45274;SDS011;31019;43.780;25.948;2022-10-18T00:57:37;47.30;;;44.08;;
45274;SDS011;31019;43.780;25.948;2022-10-18T01:00:07;49.72;;;46.15;;
45274;SDS011;31019;43.780;25.948;2022-10-18T01:02:40;47.25;;;43.85;;
45274;SDS011;31019;43.780;25.948;2022-10-18T01:05:16;49.22;;;45.83;;
45274;SDS011;31019;43.780;25.948;2022-10-18T01:10:48;46.72;;;43.22;;
45274;SDS011;31019;43.780;25.948;2022-10-18T01:13:30;53.80;;;49.45;;
45274;SDS011;31019;43.780;25.948;2022-10-18T01:16:08;52.97;;;48.97;;
45274;SDS011;31019;43.780;25.948;2022-10-18T01:18:43;50.78;;;47.20;;
45274;SDS011;31019;43.780;25.948;2022-10-18T01:21:20;48.33;;;44.47;;
45274;SDS011;31019;43.780;25.948;2022-10-18T01:24:11;47.08;;;43.65;;
45274;SDS011;31019;43.780;25.948;2022-10-18T01:27:03;51.25;;;47.10;;
45274;SDS011;31019;43.780;25.948;2022-10-18T01:29:54;49.90;;;46.13;;
45274;SDS011;31019;43.780;25.948;2022-10-18T01:32:35;46.13;;;43.03;;
45274;SDS011;31019;43.780;25.948;2022-10-18T01:35:07;47.67;;;43.85;;
45274;SDS011;31019;43.780;25.948;2022-10-18T01:37:39;46.42;;;43.10;;
45274;SDS011;31019;43.780;25.948;2022-10-18T01:40:09;48.38;;;45.03;;
45274;SDS011;31019;43.780;25.948;2022-10-18T01:42:39;44.78;;;41.58;;
45274;SDS011;31019;43.780;25.948;2022-10-18T01:45:07;50.03;;;46.20;;
45274;SDS011;31019;43.780;25.948;2022-10-18T01:47:36;48.58;;;44.90;;
45274;SDS011;31019;43.780;25.948;2022-10-18T01:50:05;48.72;;;45.22;;
45274;SDS011;31019;43.780;25.948;2022-10-18T01:52:33;47.28;;;43.97;;
45274;SDS011;31019;43.780;25.948;2022-10-18T01:55:00;48.72;;;45.22;;
45274;SDS011;31019;43.780;25.948;2022-10-18T01:57:29;46.80;;;43.40;;
45274;SDS011;31019;43.780;25.948;2022-10-18T02:02:46;48.45;;;44.85;;
45274;SDS011;31019;43.780;25.948;2022-10-18T02:05:20;48.08;;;44.70;;
45274;SDS011;31019;43.780;25.948;2022-10-18T02:07:55;48.60;;;45.30;;
45274;SDS011;31019;43.780;25.948;2022-10-18T02:10:30;60.10;;;55.60;;
45274;SDS011;31019;43.780;25.948;2022-10-18T02:13:01;56.58;;;52.33;;
45274;SDS011;31019;43.780;25.948;2022-10-18T02:15:29;52.47;;;48.63;;
45274;SDS011;31019;43.780;25.948;2022-10-18T02:18:00;49.22;;;45.22;;
45274;SDS011;31019;43.780;25.948;2022-10-18T02:20:32;46.55;;;42.88;;
45274;SDS011;31019;43.780;25.948;2022-10-18T02:23:01;49.53;;;45.42;;
45274;SDS011;31019;43.780;25.948;2022-10-18T02:25:31;53.80;;;49.15;;
45274;SDS011;31019;43.780;25.948;2022-10-18T02:28:00;52.38;;;47.65;;
45274;SDS011;31019;43.780;25.948;2022-10-18T02:30:28;55.85;;;50.85;;
45274;SDS011;31019;43.780;25.948;2022-10-18T02:33:03;53.40;;;48.30;;
45274;SDS011;31019;43.780;25.948;2022-10-18T02:35:36;55.00;;;49.83;;
45274;SDS011;31019;43.780;25.948;2022-10-18T02:38:06;51.35;;;47.00;;
45274;SDS011;31019;43.780;25.948;2022-10-18T02:40:36;52.28;;;48.08;;
45274;SDS011;31019;43.780;25.948;2022-10-18T02:43:04;47.60;;;43.92;;
45274;SDS011;31019;43.780;25.948;2022-10-18T02:45:31;46.25;;;42.85;;
45274;SDS011;31019;43.780;25.948;2022-10-18T02:47:58;50.20;;;46.35;;
45274;SDS011;31019;43.780;25.948;2022-10-18T02:50:27;49.50;;;45.80;;
45274;SDS011;31019;43.780;25.948;2022-10-18T02:52:53;48.92;;;45.38;;
45274;SDS011;31019;43.780;25.948;2022-10-18T02:55:20;53.75;;;49.88;;
45274;SDS011;31019;43.780;25.948;2022-10-18T02:57:47;48.13;;;44.50;;
45274;SDS011;31019;43.780;25.948;2022-10-18T03:00:14;46.63;;;43.22;;
45274;SDS011;31019;43.780;25.948;2022-10-18T03:02:41;47.85;;;44.08;;
45274;SDS011;31019;43.780;25.948;2022-10-18T03:05:08;47.67;;;44.22;;
45274;SDS011;31019;43.780;25.948;2022-10-18T03:07:36;49.53;;;45.85;;
45274;SDS011;31019;43.780;25.948;2022-10-18T03:10:03;48.40;;;44.75;;
45274;SDS011;31019;43.780;25.948;2022-10-18T03:12:30;51.05;;;47.30;;
45274;SDS011;31019;43.780;25.948;2022-10-18T03:14:56;52.08;;;48.28;;
45274;SDS011;31019;43.780;25.948;2022-10-18T03:17:23;49.28;;;45.85;;
45274;SDS011;31019;43.780;25.948;2022-10-18T03:19:50;48.22;;;45.03;;
45274;SDS011;31019;43.780;25.948;2022-10-18T03:22:17;51.13;;;47.83;;
45274;SDS011;31019;43.780;25.948;2022-10-18T03:24:45;47.25;;;43.50;;
45274;SDS011;31019;43.780;25.948;2022-10-18T03:27:11;46.58;;;43.08;;
45274;SDS011;31019;43.780;25.948;2022-10-18T03:29:38;49.50;;;45.88;;
45274;SDS011;31019;43.780;25.948;2022-10-18T03:32:17;44.53;;;41.42;;
45274;SDS011;31019;43.780;25.948;2022-10-18T03:34:55;48.55;;;45.20;;
45274;SDS011;31019;43.780;25.948;2022-10-18T03:37:24;44.40;;;40.75;;
45274;SDS011;31019;43.780;25.948;2022-10-18T03:39:54;42.70;;;39.38;;
45274;SDS011;31019;43.780;25.948;2022-10-18T03:42:22;48.63;;;44.72;;
45274;SDS011;31019;43.780;25.948;2022-10-18T03:44:56;52.67;;;47.95;;
45274;SDS011;31019;43.780;25.948;2022-10-18T03:47:27;49.63;;;45.22;;
45274;SDS011;31019;43.780;25.948;2022-10-18T03:49:54;47.80;;;43.97;;
45274;SDS011;31019;43.780;25.948;2022-10-18T03:52:21;48.33;;;44.53;;
45274;SDS011;31019;43.780;25.948;2022-10-18T03:54:49;45.13;;;41.70;;
45274;SDS011;31019;43.780;25.948;2022-10-18T03:57:18;68.13;;;63.05;;
45274;SDS011;31019;43.780;25.948;2022-10-18T03:59:44;76.88;;;70.22;;
45274;SDS011;31019;43.780;25.948;2022-10-18T04:02:12;74.38;;;68.05;;
45274;SDS011;31019;43.780;25.948;2022-10-18T04:04:39;72.50;;;66.18;;
45274;SDS011;31019;43.780;25.948;2022-10-18T04:07:09;74.82;;;68.38;;
45274;SDS011;31019;43.780;25.948;2022-10-18T04:09:36;46.65;;;42.72;;
45274;SDS011;31019;43.780;25.948;2022-10-18T04:12:03;45.28;;;41.83;;
45274;SDS011;31019;43.780;25.948;2022-10-18T04:14:31;39.08;;;35.50;;
45274;SDS011;31019;43.780;25.948;2022-10-18T04:16:58;45.40;;;41.88;;
45274;SDS011;31019;43.780;25.948;2022-10-18T04:19:31;43.15;;;40.03;;
45274;SDS011;31019;43.780;25.948;2022-10-18T04:21:58;43.63;;;39.95;;
45274;SDS011;31019;43.780;25.948;2022-10-18T04:24:27;43.78;;;40.40;;
45274;SDS011;31019;43.780;25.948;2022-10-18T04:26:56;45.50;;;41.83;;
45274;SDS011;31019;43.780;25.948;2022-10-18T04:29:31;43.30;;;39.83;;
45274;SDS011;31019;43.780;25.948;2022-10-18T04:32:12;43.63;;;40.03;;
45274;SDS011;31019;43.780;25.948;2022-10-18T04:37:09;46.95;;;43.10;;
45274;SDS011;31019;43.780;25.948;2022-10-18T04:39:36;46.08;;;41.65;;
45274;SDS011;31019;43.780;25.948;2022-10-18T04:42:07;44.20;;;39.83;;
45274;SDS011;31019;43.780;25.948;2022-10-18T04:44:35;44.53;;;39.88;;
45274;SDS011;31019;43.780;25.948;2022-10-18T04:47:06;41.10;;;37.05;;
45274;SDS011;31019;43.780;25.948;2022-10-18T04:49:42;41.92;;;37.35;;
45274;SDS011;31019;43.780;25.948;2022-10-18T04:52:13;41.13;;;36.95;;
45274;SDS011;31019;43.780;25.948;2022-10-18T04:54:40;40.53;;;36.72;;
45274;SDS011;31019;43.780;25.948;2022-10-18T04:57:18;43.55;;;39.28;;
45274;SDS011;31019;43.780;25.948;2022-10-18T04:59:49;41.15;;;37.65;;
45274;SDS011;31019;43.780;25.948;2022-10-18T05:04:45;42.65;;;38.80;;
45274;SDS011;31019;43.780;25.948;2022-10-18T05:07:12;42.80;;;39.17;;
45274;SDS011;31019;43.780;25.948;2022-10-18T05:09:45;43.00;;;39.40;;
45274;SDS011;31019;43.780;25.948;2022-10-18T05:12:12;41.45;;;38.35;;
45274;SDS011;31019;43.780;25.948;2022-10-18T05:14:46;41.63;;;38.83;;
45274;SDS011;31019;43.780;25.948;2022-10-18T05:17:15;41.55;;;38.45;;
45274;SDS011;31019;43.780;25.948;2022-10-18T05:19:48;41.95;;;38.72;;
45274;SDS011;31019;43.780;25.948;2022-10-18T05:22:15;41.90;;;38.70;;
45274;SDS011;31019;43.780;25.948;2022-10-18T05:24:41;42.03;;;38.65;;
45274;SDS011;31019;43.780;25.948;2022-10-18T05:27:08;41.55;;;37.95;;
45274;SDS011;31019;43.780;25.948;2022-10-18T05:32:07;42.22;;;38.95;;
45274;SDS011;31019;43.780;25.948;2022-10-18T05:34:35;41.33;;;38.45;;
45274;SDS011;31019;43.780;25.948;2022-10-18T05:37:02;42.53;;;39.10;;
45274;SDS011;31019;43.780;25.948;2022-10-18T05:39:29;42.90;;;39.72;;
45274;SDS011;31019;43.780;25.948;2022-10-18T05:41:56;43.30;;;39.97;;
45274;SDS011;31019;43.780;25.948;2022-10-18T05:46:54;40.38;;;37.60;;
45274;SDS011;31019;43.780;25.948;2022-10-18T05:49:27;40.67;;;37.47;;
45274;SDS011;31019;43.780;25.948;2022-10-18T05:51:57;40.45;;;37.50;;
45274;SDS011;31019;43.780;25.948;2022-10-18T05:54:24;41.35;;;38.42;;
45274;SDS011;31019;43.780;25.948;2022-10-18T05:56:51;42.40;;;39.20;;
45274;SDS011;31019;43.780;25.948;2022-10-18T05:59:19;41.65;;;38.38;;
45274;SDS011;31019;43.780;25.948;2022-10-18T06:01:47;43.50;;;40.40;;
45274;SDS011;31019;43.780;25.948;2022-10-18T06:04:15;42.92;;;39.65;;
45274;SDS011;31019;43.780;25.948;2022-10-18T06:06:46;43.47;;;40.60;;
45274;SDS011;31019;43.780;25.948;2022-10-18T06:09:14;42.05;;;39.20;;
45274;SDS011;31019;43.780;25.948;2022-10-18T06:11:41;43.70;;;40.70;;
45274;SDS011;31019;43.780;25.948;2022-10-18T06:14:09;43.28;;;40.28;;
45274;SDS011;31019;43.780;25.948;2022-10-18T06:16:50;41.10;;;38.50;;
45274;SDS011;31019;43.780;25.948;2022-10-18T06:21:54;43.80;;;41.00;;
45274;SDS011;31019;43.780;25.948;2022-10-18T06:26:49;43.38;;;40.45;;
45274;SDS011;31019;43.780;25.948;2022-10-18T06:29:25;44.10;;;40.30;;
45274;SDS011;31019;43.780;25.948;2022-10-18T06:31:52;44.10;;;41.05;;
45274;SDS011;31019;43.780;25.948;2022-10-18T06:34:21;42.80;;;39.90;;
45274;SDS011;31019;43.780;25.948;2022-10-18T06:36:48;41.78;;;39.17;;
45274;SDS011;31019;43.780;25.948;2022-10-18T06:39:15;41.47;;;38.63;;
45274;SDS011;31019;43.780;25.948;2022-10-18T06:41:43;47.08;;;42.30;;
45274;SDS011;31019;43.780;25.948;2022-10-18T06:44:10;40.60;;;38.10;;
45274;SDS011;31019;43.780;25.948;2022-10-18T06:46:40;43.88;;;39.22;;
45274;SDS011;31019;43.780;25.948;2022-10-18T06:49:08;41.80;;;39.20;;
45274;SDS011;31019;43.780;25.948;2022-10-18T06:51:35;41.40;;;38.90;;
45274;SDS011;31019;43.780;25.948;2022-10-18T06:54:02;42.03;;;39.42;;
45274;SDS011;31019;43.780;25.948;2022-10-18T06:56:32;41.92;;;39.22;;
45274;SDS011;31019;43.780;25.948;2022-10-18T06:59:03;41.35;;;38.15;;
45274;SDS011;31019;43.780;25.948;2022-10-18T07:01:30;42.60;;;39.95;;
45274;SDS011;31019;43.780;25.948;2022-10-18T07:03:57;43.28;;;40.38;;
45274;SDS011;31019;43.780;25.948;2022-10-18T07:06:24;41.88;;;39.05;;
45274;SDS011;31019;43.780;25.948;2022-10-18T07:08:52;43.47;;;40.55;;
45274;SDS011;31019;43.780;25.948;2022-10-18T07:11:19;45.28;;;42.05;;
45274;SDS011;31019;43.780;25.948;2022-10-18T07:13:50;44.53;;;41.72;;
45274;SDS011;31019;43.780;25.948;2022-10-18T07:16:19;46.03;;;42.80;;
45274;SDS011;31019;43.780;25.948;2022-10-18T07:18:48;43.10;;;40.45;;
45274;SDS011;31019;43.780;25.948;2022-10-18T07:21:16;44.67;;;41.80;;
45274;SDS011;31019;43.780;25.948;2022-10-18T07:23:45;45.45;;;42.35;;
45274;SDS011;31019;43.780;25.948;2022-10-18T07:26:14;43.72;;;41.10;;
45274;SDS011;31019;43.780;25.948;2022-10-18T07:28:42;44.03;;;40.83;;
45274;SDS011;31019;43.780;25.948;2022-10-18T07:31:12;43.55;;;40.85;;
45274;SDS011;31019;43.780;25.948;2022-10-18T07:33:41;44.45;;;41.45;;
45274;SDS011;31019;43.780;25.948;2022-10-18T07:36:09;44.63;;;41.72;;
45274;SDS011;31019;43.780;25.948;2022-10-18T07:38:37;44.05;;;41.25;;
45274;SDS011;31019;43.780;25.948;2022-10-18T07:41:06;44.03;;;41.28;;
45274;SDS011;31019;43.780;25.948;2022-10-18T13:08:31;41.53;;;38.28;;
45274;SDS011;31019;43.780;25.948;2022-10-18T13:11:23;40.67;;;37.63;;
45274;SDS011;31019;43.780;25.948;2022-10-18T13:14:04;39.90;;;36.95;;
45274;SDS011;31019;43.780;25.948;2022-10-18T13:17:10;43.70;;;39.40;;
45274;SDS011;31019;43.780;25.948;2022-10-18T13:19:48;40.90;;;37.65;;
45274;SDS011;31019;43.780;25.948;2022-10-18T13:22:26;41.67;;;38.67;;
45274;SDS011;31019;43.780;25.948;2022-10-18T13:25:04;43.08;;;40.08;;
45274;SDS011;31019;43.780;25.948;2022-10-18T13:27:41;43.33;;;40.25;;
45274;SDS011;31019;43.780;25.948;2022-10-18T13:30:32;41.10;;;38.00;;
45274;SDS011;31019;43.780;25.948;2022-10-18T13:33:22;47.17;;;42.88;;
45274;SDS011;31019;43.780;25.948;2022-10-18T13:35:56;45.38;;;41.78;;
45274;SDS011;31019;43.780;25.948;2022-10-18T13:38:39;42.95;;;39.70;;
45274;SDS011;31019;43.780;25.948;2022-10-18T13:41:13;42.50;;;39.03;;
45274;SDS011;31019;43.780;25.948;2022-10-18T13:43:59;45.17;;;41.35;;
45274;SDS011;31019;43.780;25.948;2022-10-18T13:47:08;44.65;;;40.72;;
45274;SDS011;31019;43.780;25.948;2022-10-18T13:52:37;43.88;;;40.67;;
45274;SDS011;31019;43.780;25.948;2022-10-18T13:58:23;43.13;;;40.03;;
45274;SDS011;31019;43.780;25.948;2022-10-18T14:01:06;41.13;;;38.00;;
45274;SDS011;31019;43.780;25.948;2022-10-18T14:03:56;39.67;;;36.80;;
45274;SDS011;31019;43.780;25.948;2022-10-18T14:06:49;41.40;;;38.17;;
45274;SDS011;31019;43.780;25.948;2022-10-18T14:09:18;42.78;;;38.72;;
45274;SDS011;31019;43.780;25.948;2022-10-18T14:12:00;40.17;;;36.78;;
45274;SDS011;31019;43.780;25.948;2022-10-18T14:19:49;42.10;;;39.08;;
45274;SDS011;31019;43.780;25.948;2022-10-18T14:22:25;44.45;;;40.85;;
45274;SDS011;31019;43.780;25.948;2022-10-18T14:25:17;43.42;;;40.13;;
45274;SDS011;31019;43.780;25.948;2022-10-18T14:30:55;40.15;;;36.80;;
45274;SDS011;31019;43.780;25.948;2022-10-18T14:33:27;43.30;;;39.85;;
45274;SDS011;31019;43.780;25.948;2022-10-18T14:36:03;42.15;;;38.83;;
45274;SDS011;31019;43.780;25.948;2022-10-18T14:38:37;44.80;;;40.30;;
45274;SDS011;31019;43.780;25.948;2022-10-18T14:41:13;41.95;;;38.35;;
45274;SDS011;31019;43.780;25.948;2022-10-18T14:43:45;42.78;;;38.72;;
45274;SDS011;31019;43.780;25.948;2022-10-18T14:46:18;41.95;;;38.15;;
45274;SDS011;31019;43.780;25.948;2022-10-18T14:48:58;42.05;;;38.53;;
45274;SDS011;31019;43.780;25.948;2022-10-18T14:54:05;43.38;;;39.20;;
45274;SDS011;31019;43.780;25.948;2022-10-18T14:56:39;46.33;;;41.88;;
45274;SDS011;31019;43.780;25.948;2022-10-18T14:59:16;105.05;;;44.58;;
45274;SDS011;31019;43.780;25.948;2022-10-18T15:01:54;75.88;;;43.90;;
45274;SDS011;31019;43.780;25.948;2022-10-18T15:04:27;61.15;;;47.47;;
45274;SDS011;31019;43.780;25.948;2022-10-18T15:07:02;58.13;;;47.85;;
45274;SDS011;31019;43.780;25.948;2022-10-18T15:09:44;61.38;;;50.33;;
45274;SDS011;31019;43.780;25.948;2022-10-18T15:12:17;55.90;;;50.17;;
45274;SDS011;31019;43.780;25.948;2022-10-18T15:17:51;57.25;;;51.45;;
45274;SDS011;31019;43.780;25.948;2022-10-18T15:20:20;54.92;;;48.95;;
45274;SDS011;31019;43.780;25.948;2022-10-18T15:23:28;55.28;;;48.50;;
45274;SDS011;31019;43.780;25.948;2022-10-18T15:26:01;55.55;;;50.10;;
45274;SDS011;31019;43.780;25.948;2022-10-18T15:28:40;53.72;;;47.67;;
45274;SDS011;31019;43.780;25.948;2022-10-18T15:31:28;56.75;;;51.42;;
45274;SDS011;31019;43.780;25.948;2022-10-18T15:34:14;54.53;;;49.00;;
45274;SDS011;31019;43.780;25.948;2022-10-18T15:36:55;53.85;;;48.17;;
45274;SDS011;31019;43.780;25.948;2022-10-18T15:39:42;50.83;;;45.75;;
45274;SDS011;31019;43.780;25.948;2022-10-18T15:45:28;52.67;;;47.55;;
45274;SDS011;31019;43.780;25.948;2022-10-18T15:51:12;49.63;;;45.05;;
45274;SDS011;31019;43.780;25.948;2022-10-18T15:54:07;48.22;;;44.13;;
45274;SDS011;31019;43.780;25.948;2022-10-18T15:56:58;46.63;;;42.88;;
45274;SDS011;31019;43.780;25.948;2022-10-18T15:59:51;71.28;;;48.58;;
45274;SDS011;31019;43.780;25.948;2022-10-18T16:02:24;77.60;;;53.38;;
45274;SDS011;31019;43.780;25.948;2022-10-18T16:04:57;78.50;;;58.63;;
45274;SDS011;31019;43.780;25.948;2022-10-18T16:07:49;84.00;;;64.88;;
45274;SDS011;31019;43.780;25.948;2022-10-18T16:10:18;146.05;;;81.82;;
45274;SDS011;31019;43.780;25.948;2022-10-18T16:12:58;172.90;;;98.35;;
45274;SDS011;31019;43.780;25.948;2022-10-18T16:15:35;173.43;;;90.07;;
45274;SDS011;31019;43.780;25.948;2022-10-18T16:18:51;136.93;;;81.43;;
45274;SDS011;31019;43.780;25.948;2022-10-18T16:24:27;135.27;;;83.03;;
45274;SDS011;31019;43.780;25.948;2022-10-18T16:26:54;123.95;;;85.15;;
45274;SDS011;31019;43.780;25.948;2022-10-18T16:29:30;116.78;;;81.03;;
45274;SDS011;31019;43.780;25.948;2022-10-18T16:32:07;116.50;;;79.95;;
45274;SDS011;31019;43.780;25.948;2022-10-18T16:34:37;111.20;;;75.35;;
45274;SDS011;31019;43.780;25.948;2022-10-18T16:37:21;83.03;;;71.35;;
45274;SDS011;31019;43.780;25.948;2022-10-18T16:46:42;95.53;;;67.57;;
45274;SDS011;31019;43.780;25.948;2022-10-18T16:49:32;131.20;;;72.60;;
45274;SDS011;31019;43.780;25.948;2022-10-18T16:52:03;105.10;;;66.03;;
45274;SDS011;31019;43.780;25.948;2022-10-18T16:54:40;351.95;;;140.90;;
45274;SDS011;31019;43.780;25.948;2022-10-18T16:57:23;328.80;;;137.23;;
45274;SDS011;31019;43.780;25.948;2022-10-18T17:00:19;227.18;;;106.55;;
45274;SDS011;31019;43.780;25.948;2022-10-18T17:05:56;109.75;;;71.72;;
45274;SDS011;31019;43.780;25.948;2022-10-18T17:08:35;85.37;;;62.73;;
45274;SDS011;31019;43.780;25.948;2022-10-18T17:11:09;83.93;;;61.53;;
45274;SDS011;31019;43.780;25.948;2022-10-18T17:13:58;75.72;;;59.40;;
45274;SDS011;31019;43.780;25.948;2022-10-18T17:17:57;68.88;;;55.58;;
45274;SDS011;31019;43.780;25.948;2022-10-18T17:20:14;65.63;;;55.08;;
45274;SDS011;31019;43.780;25.948;2022-10-18T17:22:48;62.65;;;54.67;;
45274;SDS011;31019;43.780;25.948;2022-10-18T17:25:29;64.38;;;57.33;;
45274;SDS011;31019;43.780;25.948;2022-10-18T17:28:14;75.30;;;61.33;;
45274;SDS011;31019;43.780;25.948;2022-10-18T17:31:10;161.18;;;108.18;;
45274;SDS011;31019;43.780;25.948;2022-10-18T17:33:43;132.70;;;91.50;;
45274;SDS011;31019;43.780;25.948;2022-10-18T17:36:16;106.35;;;80.30;;
45274;SDS011;31019;43.780;25.948;2022-10-18T17:38:48;107.00;;;70.07;;
45274;SDS011;31019;43.780;25.948;2022-10-18T17:41:17;99.13;;;68.70;;
45274;SDS011;31019;43.780;25.948;2022-10-18T17:43:46;85.82;;;67.10;;
45274;SDS011;31019;43.780;25.948;2022-10-18T17:46:18;78.60;;;63.03;;
45274;SDS011;31019;43.780;25.948;2022-10-18T17:48:52;91.22;;;66.22;;
45274;SDS011;31019;43.780;25.948;2022-10-18T17:51:24;81.85;;;64.55;;
45274;SDS011;31019;43.780;25.948;2022-10-18T17:53:51;99.53;;;70.15;;
45274;SDS011;31019;43.780;25.948;2022-10-18T17:56:20;89.60;;;65.03;;
45274;SDS011;31019;43.780;25.948;2022-10-18T17:58:53;81.07;;;61.97;;
45274;SDS011;31019;43.780;25.948;2022-10-18T18:04:43;58.65;;;52.78;;
45274;SDS011;31019;43.780;25.948;2022-10-18T18:07:30;51.90;;;46.60;;
45274;SDS011;31019;43.780;25.948;2022-10-18T18:10:07;61.13;;;54.92;;
45274;SDS011;31019;43.780;25.948;2022-10-18T18:15:17;59.30;;;53.42;;
45274;SDS011;31019;43.780;25.948;2022-10-18T18:17:46;62.33;;;56.25;;
45274;SDS011;31019;43.780;25.948;2022-10-18T18:20:41;62.03;;;55.25;;
45274;SDS011;31019;43.780;25.948;2022-10-18T18:23:20;55.40;;;50.40;;
45274;SDS011;31019;43.780;25.948;2022-10-18T18:25:53;57.47;;;51.78;;
45274;SDS011;31019;43.780;25.948;2022-10-18T18:28:28;59.38;;;53.00;;
45274;SDS011;31019;43.780;25.948;2022-10-18T18:31:06;58.88;;;52.88;;
45274;SDS011;31019;43.780;25.948;2022-10-18T18:33:45;63.95;;;57.15;;
45274;SDS011;31019;43.780;25.948;2022-10-18T18:36:38;64.20;;;55.28;;
45274;SDS011;31019;43.780;25.948;2022-10-18T18:39:18;59.30;;;52.58;;
45274;SDS011;31019;43.780;25.948;2022-10-18T18:42:02;64.70;;;56.55;;
45274;SDS011;31019;43.780;25.948;2022-10-18T18:44:35;63.35;;;56.58;;
45274;SDS011;31019;43.780;25.948;2022-10-18T18:47:05;67.50;;;55.72;;
45274;SDS011;31019;43.780;25.948;2022-10-18T18:49:35;62.67;;;55.53;;
45274;SDS011;31019;43.780;25.948;2022-10-18T18:52:09;59.40;;;53.17;;
45274;SDS011;31019;43.780;25.948;2022-10-18T18:54:45;61.38;;;54.75;;
45274;SDS011;31019;43.780;25.948;2022-10-18T18:57:17;65.13;;;55.22;;
45274;SDS011;31019;43.780;25.948;2022-10-18T18:59:45;64.03;;;57.28;;
45274;SDS011;31019;43.780;25.948;2022-10-18T19:02:15;61.58;;;55.17;;
45274;SDS011;31019;43.780;25.948;2022-10-18T19:04:46;62.63;;;56.40;;
45274;SDS011;31019;43.780;25.948;2022-10-18T19:07:24;59.05;;;53.15;;
45274;SDS011;31019;43.780;25.948;2022-10-18T19:09:54;59.50;;;53.13;;
45274;SDS011;31019;43.780;25.948;2022-10-18T19:12:23;61.00;;;53.72;;
45274;SDS011;31019;43.780;25.948;2022-10-18T19:14:56;62.20;;;55.83;;
45274;SDS011;31019;43.780;25.948;2022-10-18T19:17:24;58.08;;;53.00;;
45274;SDS011;31019;43.780;25.948;2022-10-18T19:20:14;54.60;;;49.72;;
45274;SDS011;31019;43.780;25.948;2022-10-18T19:22:46;51.80;;;46.95;;
45274;SDS011;31019;43.780;25.948;2022-10-18T19:25:17;48.65;;;44.80;;
45274;SDS011;31019;43.780;25.948;2022-10-18T19:27:55;50.08;;;45.53;;
45274;SDS011;31019;43.780;25.948;2022-10-18T19:30:56;52.92;;;47.58;;
45274;SDS011;31019;43.780;25.948;2022-10-18T19:33:34;53.42;;;48.28;;
45274;SDS011;31019;43.780;25.948;2022-10-18T19:38:46;56.35;;;51.13;;
45274;SDS011;31019;43.780;25.948;2022-10-18T19:44:27;58.55;;;52.25;;
45274;SDS011;31019;43.780;25.948;2022-10-18T19:46:59;62.00;;;52.20;;
45274;SDS011;31019;43.780;25.948;2022-10-18T19:49:26;66.93;;;55.25;;
45274;SDS011;31019;43.780;25.948;2022-10-18T19:51:56;67.63;;;57.05;;
45274;SDS011;31019;43.780;25.948;2022-10-18T19:54:28;66.55;;;57.05;;
45274;SDS011;31019;43.780;25.948;2022-10-18T19:57:07;66.93;;;57.17;;
45274;SDS011;31019;43.780;25.948;2022-10-18T19:59:43;63.25;;;55.78;;
45274;SDS011;31019;43.780;25.948;2022-10-18T20:02:19;68.93;;;54.38;;
45274;SDS011;31019;43.780;25.948;2022-10-18T20:05:03;61.53;;;54.92;;
45274;SDS011;31019;43.780;25.948;2022-10-18T20:07:46;61.95;;;55.35;;
45274;SDS011;31019;43.780;25.948;2022-10-18T20:10:14;65.38;;;56.35;;
45274;SDS011;31019;43.780;25.948;2022-10-18T20:12:43;70.85;;;58.33;;
45274;SDS011;31019;43.780;25.948;2022-10-18T20:15:23;69.72;;;57.83;;
45274;SDS011;31019;43.780;25.948;2022-10-18T20:18:00;64.60;;;57.65;;
45274;SDS011;31019;43.780;25.948;2022-10-18T20:20:32;62.97;;;56.22;;
45274;SDS011;31019;43.780;25.948;2022-10-18T20:23:02;64.32;;;57.35;;
45274;SDS011;31019;43.780;25.948;2022-10-18T20:25:33;61.38;;;54.70;;
45274;SDS011;31019;43.780;25.948;2022-10-18T20:27:59;62.58;;;55.88;;
45274;SDS011;31019;43.780;25.948;2022-10-18T20:30:31;63.25;;;56.13;;
45274;SDS011;31019;43.780;25.948;2022-10-18T20:33:08;69.00;;;61.47;;
45274;SDS011;31019;43.780;25.948;2022-10-18T20:35:36;66.85;;;56.78;;
45274;SDS011;31019;43.780;25.948;2022-10-18T20:38:13;65.13;;;58.20;;
45274;SDS011;31019;43.780;25.948;2022-10-18T20:40:40;62.53;;;56.17;;
45274;SDS011;31019;43.780;25.948;2022-10-18T20:43:07;58.60;;;53.15;;
45274;SDS011;31019;43.780;25.948;2022-10-18T20:45:37;58.28;;;52.85;;
45274;SDS011;31019;43.780;25.948;2022-10-18T20:48:04;53.00;;;48.30;;
45274;SDS011;31019;43.780;25.948;2022-10-18T20:50:41;52.60;;;47.53;;
45274;SDS011;31019;43.780;25.948;2022-10-18T20:53:08;55.05;;;49.63;;
45274;SDS011;31019;43.780;25.948;2022-10-18T20:55:37;58.45;;;52.47;;
45274;SDS011;31019;43.780;25.948;2022-10-18T20:58:04;57.22;;;51.38;;
45274;SDS011;31019;43.780;25.948;2022-10-18T21:00:34;58.63;;;52.42;;
45274;SDS011;31019;43.780;25.948;2022-10-18T21:03:06;58.88;;;52.85;;
45274;SDS011;31019;43.780;25.948;2022-10-18T21:05:44;61.73;;;54.53;;
45274;SDS011;31019;43.780;25.948;2022-10-18T21:08:14;56.95;;;50.85;;
45274;SDS011;31019;43.780;25.948;2022-10-18T21:10:50;58.38;;;51.50;;
45274;SDS011;31019;43.780;25.948;2022-10-18T21:13:17;60.58;;;50.75;;
45274;SDS011;31019;43.780;25.948;2022-10-18T21:15:54;56.15;;;50.58;;
45274;SDS011;31019;43.780;25.948;2022-10-18T21:18:31;59.13;;;50.88;;
45274;SDS011;31019;43.780;25.948;2022-10-18T21:21:07;56.38;;;50.28;;
45274;SDS011;31019;43.780;25.948;2022-10-18T21:23:41;54.75;;;48.85;;
45274;SDS011;31019;43.780;25.948;2022-10-18T21:28:39;54.08;;;49.03;;